createdAt,value
2022-08-17T00:02:26.467Z,18.53
2022-08-17T00:04:54.315Z,18.49
2022-08-17T00:07:20.867Z,18.42
2022-08-17T00:09:47.374Z,18.41
2022-08-17T00:12:43.683Z,18.34
2022-08-17T00:15:00.943Z,18.33
2022-08-17T00:17:27.916Z,18.29
2022-08-17T00:19:54.583Z,18.23
2022-08-17T00:22:31.324Z,18.18
2022-08-17T00:25:07.238Z,18.13
2022-08-17T00:27:34.541Z,18.08
2022-08-17T00:30:01.057Z,18.06
2022-08-17T00:33:14.244Z,18.09
2022-08-17T00:35:19.974Z,18.15
2022-08-17T00:37:46.508Z,18.18
2022-08-17T00:40:15.207Z,18.22
2022-08-17T00:42:43.331Z,18.20
2022-08-17T00:45:12.460Z,18.20
2022-08-17T00:47:39.995Z,18.23
2022-08-17T00:50:12.427Z,18.28
2022-08-17T00:52:56.277Z,18.30
2022-08-17T00:55:25.254Z,18.33
2022-08-17T00:57:57.022Z,18.37
2022-08-17T01:00:34.383Z,18.45
2022-08-17T01:03:07.507Z,18.53
2022-08-17T01:05:42.265Z,18.53
2022-08-17T01:08:13.174Z,18.50
2022-08-17T01:10:59.457Z,18.48
2022-08-17T01:13:35.495Z,18.45
2022-08-17T01:16:12.654Z,18.45
2022-08-17T01:18:39.355Z,18.46
2022-08-17T01:21:24.708Z,18.45
2022-08-17T01:23:51.255Z,18.46
2022-08-17T01:26:18.973Z,18.43
2022-08-17T01:28:55.267Z,18.41
2022-08-17T01:31:28.099Z,18.39
2022-08-17T01:33:54.985Z,18.37
2022-08-17T01:36:21.975Z,18.34
2022-08-17T01:38:48.613Z,18.32
2022-08-17T01:41:16.453Z,18.30
2022-08-17T01:43:52.037Z,18.29
2022-08-17T01:46:27.162Z,18.25
2022-08-17T01:48:55.348Z,18.15
2022-08-17T01:51:22.376Z,17.94
2022-08-17T01:53:54.172Z,17.82
2022-08-17T01:56:24.438Z,17.71
2022-08-17T01:58:52.706Z,17.57
2022-08-17T02:01:24.148Z,17.47
2022-08-17T02:03:56.245Z,17.37
2022-08-17T02:06:52.461Z,17.28
2022-08-17T02:09:19.147Z,17.20
2022-08-17T02:11:49.974Z,17.13
2022-08-17T02:14:16.747Z,17.11
2022-08-17T02:16:43.489Z,17.06
2022-08-17T02:19:14.009Z,17.05
2022-08-17T02:21:42.344Z,17.09
2022-08-17T02:24:13.327Z,17.09
2022-08-17T02:26:40.197Z,17.02
2022-08-17T02:29:07.318Z,16.97
2022-08-17T02:31:35.580Z,16.95
2022-08-17T02:34:03.681Z,16.92
2022-08-17T02:36:34.789Z,16.89
2022-08-17T02:39:04.359Z,16.90
2022-08-17T02:41:31.105Z,16.83
2022-08-17T02:43:57.798Z,16.81
2022-08-17T02:46:28.608Z,16.86
2022-08-17T02:48:55.157Z,16.81
2022-08-17T02:51:21.684Z,16.78
2022-08-17T02:53:48.217Z,16.74
2022-08-17T02:56:14.943Z,16.72
2022-08-17T02:58:41.536Z,16.70
2022-08-17T03:01:10.161Z,16.65
2022-08-17T03:03:37.591Z,16.61
2022-08-17T03:06:04.651Z,16.60
2022-08-17T03:08:31.338Z,16.56
2022-08-17T03:10:57.836Z,16.52
2022-08-17T03:13:24.487Z,16.56
2022-08-17T03:15:51.303Z,16.56
2022-08-17T03:18:24.722Z,16.51
2022-08-17T03:20:55.022Z,16.49
2022-08-17T03:23:24.143Z,16.43
2022-08-17T03:25:53.365Z,16.47
2022-08-17T03:28:21.561Z,16.45
2022-08-17T03:30:48.834Z,16.42
2022-08-17T03:33:16.929Z,16.40
2022-08-17T03:35:44.089Z,16.37
2022-08-17T03:38:12.369Z,16.40
2022-08-17T03:40:57.714Z,16.39
2022-08-17T03:43:28.670Z,16.38
2022-08-17T03:46:28.979Z,16.38
2022-08-17T03:49:19.140Z,16.41
2022-08-17T03:52:04.027Z,16.51
2022-08-17T03:54:48.954Z,16.66
2022-08-17T03:57:16.429Z,16.77
2022-08-17T03:59:43.259Z,16.94
2022-08-17T04:02:17.464Z,17.16
2022-08-17T04:04:44.001Z,17.40
2022-08-17T04:07:10.859Z,17.66
2022-08-17T04:09:37.392Z,17.98
2022-08-17T04:12:05.127Z,18.39
2022-08-17T04:14:52.191Z,18.87
2022-08-17T04:17:25.320Z,19.57
2022-08-17T04:19:52.369Z,20.08
2022-08-17T04:22:32.597Z,20.55
2022-08-17T04:25:19.014Z,21.06
2022-08-17T04:27:45.547Z,21.44
2022-08-17T04:30:12.893Z,21.77
2022-08-17T04:33:04.429Z,22.14
2022-08-17T04:35:41.190Z,22.46
2022-08-17T04:38:08.821Z,22.83
2022-08-17T04:40:54.993Z,23.06
2022-08-17T04:43:24.502Z,23.42
2022-08-17T04:46:00.638Z,23.78
2022-08-17T04:48:36.868Z,24.10
2022-08-17T04:51:14.086Z,23.99
2022-08-17T04:53:44.079Z,24.04
2022-08-17T04:56:16.027Z,24.55
2022-08-17T04:58:49.892Z,25.34
2022-08-17T05:01:23.427Z,25.92
2022-08-17T05:03:51.604Z,26.45
2022-08-17T05:06:18.111Z,26.61
2022-08-17T05:08:44.595Z,26.96
2022-08-17T05:11:11.145Z,26.92
2022-08-17T05:13:37.666Z,26.73
2022-08-17T05:16:04.869Z,26.87
2022-08-17T05:18:31.983Z,26.81
2022-08-17T05:21:00.109Z,27.08
2022-08-17T05:23:38.498Z,27.18
2022-08-17T05:26:09.666Z,27.62
2022-08-17T05:28:40.045Z,28.19
2022-08-17T05:31:07.018Z,28.80
2022-08-17T05:33:36.973Z,28.92
2022-08-17T05:36:06.928Z,28.68
2022-08-17T05:38:33.860Z,28.99
2022-08-17T05:41:02.795Z,29.95
2022-08-17T05:43:32.947Z,29.95
2022-08-17T05:46:13.420Z,30.31
2022-08-17T05:48:47.231Z,30.69
2022-08-17T05:51:32.171Z,32.07
2022-08-17T05:54:36.350Z,32.34
2022-08-17T05:57:08.819Z,32.95
2022-08-17T05:59:44.928Z,33.28
2022-08-17T06:02:14.517Z,33.97
2022-08-17T06:04:46.815Z,33.99
2022-08-17T06:07:25.437Z,33.83
2022-08-17T06:10:00.276Z,31.19
2022-08-17T06:12:39.962Z,31.72
2022-08-17T06:15:24.947Z,31.54
2022-08-17T06:17:55.422Z,33.54
2022-08-17T06:20:23.222Z,34.13
2022-08-17T06:22:54.123Z,33.90
2022-08-17T06:25:31.543Z,33.37
2022-08-17T06:28:24.420Z,33.56
2022-08-17T06:31:00.845Z,34.08
2022-08-17T06:33:34.249Z,34.21
2022-08-17T06:36:25.152Z,34.97
2022-08-17T06:39:04.567Z,35.02
2022-08-17T06:41:58.475Z,35.30
2022-08-17T06:44:49.648Z,35.32
2022-08-17T06:47:31.734Z,36.24
2022-08-17T06:50:15.458Z,36.09
2022-08-17T06:52:59.988Z,36.24
2022-08-17T06:55:37.943Z,36.91
2022-08-17T06:58:16.492Z,37.53
2022-08-17T07:00:47.246Z,36.37
2022-08-17T07:03:38.990Z,34.98
2022-08-17T07:06:12.793Z,34.25
2022-08-17T07:09:05.967Z,35.45
2022-08-17T07:11:40.215Z,35.98
2022-08-17T07:14:30.203Z,35.38
2022-08-17T07:16:59.011Z,36.57
2022-08-17T07:19:31.770Z,37.36
2022-08-17T07:22:18.475Z,36.69
2022-08-17T07:25:21.085Z,37.66
2022-08-17T07:27:54.298Z,37.94
2022-08-17T07:30:27.206Z,36.04
2022-08-17T07:33:02.643Z,36.78
2022-08-17T07:35:37.680Z,36.74
2022-08-17T07:38:25.394Z,37.76
2022-08-17T07:40:57.861Z,38.61
2022-08-17T07:43:26.198Z,38.60
2022-08-17T07:46:29.976Z,38.81
2022-08-17T07:49:03.192Z,39.18
2022-08-17T07:51:37.951Z,38.59
2022-08-17T07:54:22.656Z,38.38
2022-08-17T07:57:29.504Z,38.92
2022-08-17T08:00:03.170Z,37.84
2022-08-17T08:02:38.981Z,38.14
2022-08-17T08:05:12.948Z,37.89
2022-08-17T08:07:55.047Z,38.35
2022-08-17T08:10:27.938Z,39.75
2022-08-17T08:13:21.640Z,37.17
2022-08-17T08:16:11.829Z,36.88
2022-08-17T08:18:54.298Z,38.59
2022-08-17T08:21:36.901Z,40.20
2022-08-17T08:24:18.850Z,40.67
2022-08-17T08:26:55.559Z,38.52
2022-08-17T08:30:05.091Z,36.73
2022-08-17T08:32:45.383Z,37.39
2022-08-17T08:35:17.685Z,35.45
2022-08-17T08:37:44.362Z,35.19
2022-08-17T08:40:35.633Z,37.06
2022-08-17T08:43:22.154Z,37.98
2022-08-17T08:46:10.475Z,38.77
2022-08-17T08:48:55.739Z,37.76
2022-08-17T08:51:47.183Z,36.42
2022-08-17T08:54:14.056Z,36.76
2022-08-17T08:57:11.564Z,37.36
2022-08-17T08:59:58.194Z,37.93
2022-08-17T09:02:43.642Z,37.69
2022-08-17T09:05:31.726Z,36.45
2022-08-17T09:08:25.069Z,38.23
2022-08-17T09:10:56.858Z,38.64
2022-08-17T09:13:41.490Z,38.99
2022-08-17T09:16:55.908Z,39.60
2022-08-17T09:19:48.902Z,38.12
2022-08-17T09:22:37.483Z,39.12
2022-08-17T09:25:12.136Z,38.89
2022-08-17T09:28:00.468Z,38.82
2022-08-17T09:30:36.333Z,38.54
2022-08-17T09:33:08.054Z,38.81
2022-08-17T09:35:49.666Z,39.65
2022-08-17T09:38:34.816Z,38.43
2022-08-17T09:41:39.702Z,37.94
2022-08-17T09:44:40.042Z,37.10
2022-08-17T09:47:45.572Z,36.69
2022-08-17T09:51:01.624Z,36.23
2022-08-17T09:53:11.253Z,38.26
2022-08-17T09:56:05.478Z,38.81
2022-08-17T09:58:40.831Z,38.19
2022-08-17T10:01:31.474Z,35.58
2022-08-17T10:04:17.762Z,36.03
2022-08-17T10:06:58.918Z,36.15
2022-08-17T10:09:37.123Z,36.21
2022-08-17T10:12:20.231Z,37.75
2022-08-17T10:15:07.698Z,38.24
2022-08-17T10:18:08.868Z,38.14
2022-08-17T10:21:15.617Z,39.04
2022-08-17T10:24:03.329Z,37.54
2022-08-17T10:26:46.324Z,37.52
2022-08-17T10:29:28.990Z,37.37
2022-08-17T10:32:04.258Z,37.18
2022-08-17T10:34:51.929Z,37.36
2022-08-17T10:37:46.714Z,36.85
2022-08-17T10:40:38.760Z,36.55
2022-08-17T10:43:30.331Z,36.91
2022-08-17T10:46:31.329Z,37.68
2022-08-17T10:49:17.093Z,37.33
2022-08-17T10:51:47.840Z,37.55
2022-08-17T10:54:35.160Z,39.04
2022-08-17T10:57:02.364Z,39.90
2022-08-17T10:59:35.020Z,39.92
2022-08-17T11:02:04.767Z,41.02
2022-08-17T11:04:34.234Z,40.81
2022-08-17T11:07:11.581Z,40.43
2022-08-17T11:09:55.013Z,40.04
2022-08-17T11:12:49.430Z,40.06
2022-08-17T11:15:37.975Z,39.78
2022-08-17T11:18:07.280Z,37.40
2022-08-17T11:20:54.562Z,37.83
2022-08-17T11:23:34.756Z,37.64
2022-08-17T11:26:04.216Z,35.12
2022-08-17T11:28:50.401Z,36.92
2022-08-17T11:31:39.117Z,37.33
2022-08-17T11:34:19.570Z,37.42
2022-08-17T11:37:01.167Z,36.95
2022-08-17T11:39:45.372Z,36.55
2022-08-17T11:42:32.578Z,36.41
2022-08-17T11:45:32.366Z,37.56
2022-08-17T11:48:46.199Z,36.37
2022-08-17T11:51:33.839Z,37.38
2022-08-17T11:54:34.847Z,38.61
2022-08-17T11:57:26.455Z,39.08
2022-08-17T12:00:00.145Z,38.58
2022-08-17T12:02:32.838Z,35.51
2022-08-17T12:05:27.516Z,34.88
2022-08-17T12:07:57.134Z,34.03
2022-08-17T12:10:31.889Z,34.05
2022-08-17T12:13:03.924Z,33.54
2022-08-17T12:15:35.311Z,33.98
2022-08-17T12:18:02.001Z,33.39
2022-08-17T12:20:40.066Z,33.45
2022-08-17T12:23:36.075Z,33.85
2022-08-17T12:26:17.700Z,32.76
2022-08-17T12:28:47.798Z,32.79
2022-08-17T12:31:26.586Z,32.88
2022-08-17T12:33:53.405Z,32.90
2022-08-17T12:36:24.833Z,32.76
2022-08-17T12:39:13.102Z,32.66
2022-08-17T12:41:44.902Z,32.25
2022-08-17T12:44:21.199Z,31.78
2022-08-17T12:47:21.110Z,31.97
2022-08-17T12:49:51.550Z,32.28
2022-08-17T12:52:25.760Z,32.10
2022-08-17T12:55:02.073Z,31.80
2022-08-17T12:57:42.540Z,32.26
2022-08-17T13:00:25.686Z,32.54
2022-08-17T13:03:09.559Z,32.83
2022-08-17T13:05:53.809Z,32.64
2022-08-17T13:08:25.603Z,32.96
2022-08-17T13:11:01.789Z,33.02
2022-08-17T13:13:31.837Z,33.09
2022-08-17T13:16:00.318Z,33.20
2022-08-17T13:18:35.974Z,32.65
2022-08-17T13:21:02.831Z,32.78
2022-08-17T13:23:32.254Z,32.99
2022-08-17T13:26:07.741Z,33.29
2022-08-17T13:28:37.575Z,33.35
2022-08-17T13:31:26.308Z,33.37
2022-08-17T13:33:52.987Z,32.61
2022-08-17T13:36:32.086Z,32.10
2022-08-17T13:39:18.917Z,31.77
2022-08-17T13:41:47.876Z,32.17
2022-08-17T13:44:50.019Z,32.71
2022-08-17T13:47:19.930Z,32.54
2022-08-17T13:49:48.886Z,32.65
2022-08-17T13:52:39.244Z,32.78
2022-08-17T13:55:21.265Z,33.10
2022-08-17T13:58:03.682Z,33.25
2022-08-17T14:00:36.545Z,33.41
2022-08-17T14:03:04.822Z,33.56
2022-08-17T14:05:32.506Z,33.56
2022-08-17T14:08:06.560Z,32.88
2022-08-17T14:10:36.266Z,32.80
2022-08-17T14:13:03.386Z,32.54
2022-08-17T14:15:55.816Z,32.70
2022-08-17T14:18:49.821Z,32.70
2022-08-17T14:21:08.741Z,32.68
2022-08-17T14:23:37.077Z,32.41
2022-08-17T14:26:04.718Z,32.50
2022-08-17T14:28:31.223Z,32.43
2022-08-17T14:31:00.800Z,32.62
2022-08-17T14:33:29.052Z,32.67
2022-08-17T14:35:55.914Z,32.75
2022-08-17T14:38:22.427Z,32.75
2022-08-17T14:40:49.314Z,32.84
2022-08-17T14:43:15.977Z,32.94
2022-08-17T14:45:43.163Z,32.90
2022-08-17T14:48:10.558Z,32.90
2022-08-17T14:50:41.157Z,32.68
2022-08-17T14:53:11.128Z,32.58
2022-08-17T14:55:40.414Z,32.50
2022-08-17T14:58:07.555Z,32.37
2022-08-17T15:00:34.877Z,32.61
2022-08-17T15:03:01.937Z,32.62
2022-08-17T15:05:34.742Z,32.36
2022-08-17T15:08:02.775Z,32.26
2022-08-17T15:10:30.306Z,32.29
2022-08-17T15:12:57.800Z,32.20
2022-08-17T15:15:24.688Z,32.40
2022-08-17T15:17:51.710Z,32.64
2022-08-17T15:20:23.852Z,32.88
2022-08-17T15:22:50.921Z,32.92
2022-08-17T15:25:19.073Z,32.96
2022-08-17T15:27:45.769Z,33.01
2022-08-17T15:30:12.878Z,32.79
2022-08-17T15:32:50.806Z,32.86
2022-08-17T15:35:26.804Z,32.80
2022-08-17T15:37:55.490Z,32.49
2022-08-17T15:40:22.015Z,32.31
2022-08-17T15:42:48.587Z,32.28
2022-08-17T15:45:19.328Z,32.25
2022-08-17T15:47:46.582Z,32.17
2022-08-17T15:50:13.251Z,32.31
2022-08-17T15:52:40.571Z,32.44
2022-08-17T15:55:11.639Z,32.52
2022-08-17T15:57:38.403Z,32.56
2022-08-17T16:00:06.916Z,32.65
2022-08-17T16:03:15.019Z,32.49
2022-08-17T16:05:27.331Z,32.37
2022-08-17T16:07:55.775Z,32.24
2022-08-17T16:10:23.314Z,32.13
2022-08-17T16:13:02.377Z,31.94
2022-08-17T16:15:31.215Z,32.00
2022-08-17T16:17:57.755Z,31.95
2022-08-17T16:20:25.995Z,31.89
2022-08-17T16:22:52.710Z,31.85
2022-08-17T16:25:52.344Z,31.90
2022-08-17T16:28:15.133Z,31.76
2022-08-17T16:30:41.830Z,31.82
2022-08-17T16:33:11.578Z,31.82
2022-08-17T16:35:38.731Z,31.64
2022-08-17T16:38:05.551Z,31.60
2022-08-17T16:40:35.770Z,31.50
2022-08-17T16:43:02.845Z,31.47
2022-08-17T16:45:39.920Z,31.43
2022-08-17T16:48:07.896Z,31.40
2022-08-17T16:50:34.495Z,31.38
2022-08-17T16:53:10.335Z,31.37
2022-08-17T16:55:36.979Z,31.38
2022-08-17T16:58:08.784Z,31.32
2022-08-17T17:00:36.258Z,31.20
2022-08-17T17:03:19.817Z,31.07
2022-08-17T17:06:22.460Z,30.97
2022-08-17T17:09:13.367Z,30.96
2022-08-17T17:11:50.912Z,30.86
2022-08-17T17:14:25.534Z,30.80
2022-08-17T17:17:13.482Z,30.70
2022-08-17T17:20:18.136Z,30.53
2022-08-17T17:22:48.223Z,30.41
2022-08-17T17:25:26.721Z,30.26
2022-08-17T17:28:04.611Z,30.09
2022-08-17T17:30:40.234Z,29.89
2022-08-17T17:33:17.773Z,29.69
2022-08-17T17:35:47.782Z,29.60
2022-08-17T17:38:23.124Z,29.48
2022-08-17T17:41:03.150Z,29.33
2022-08-17T17:43:40.499Z,29.19
2022-08-17T17:46:29.281Z,29.03
2022-08-17T17:48:59.574Z,28.84
2022-08-17T17:52:06.681Z,28.63
2022-08-17T17:54:39.167Z,28.43
2022-08-17T17:57:27.204Z,28.21
2022-08-17T18:00:06.930Z,28.04
2022-08-17T18:02:58.169Z,27.87
2022-08-17T18:05:36.819Z,27.75
2022-08-17T18:08:32.375Z,27.60
2022-08-17T18:11:24.074Z,27.46
2022-08-17T18:13:57.492Z,27.28
2022-08-17T18:16:27.425Z,27.05
2022-08-17T18:18:57.687Z,26.90
2022-08-17T18:21:37.967Z,26.73
2022-08-17T18:24:07.870Z,26.55
2022-08-17T18:26:45.092Z,26.36
2022-08-17T18:29:42.737Z,26.12
2022-08-17T18:32:34.553Z,25.96
2022-08-17T18:35:09.802Z,25.84
2022-08-17T18:37:47.634Z,25.71
2022-08-17T18:40:17.066Z,25.65
2022-08-17T18:42:58.303Z,25.67
2022-08-17T18:45:34.084Z,25.63
2022-08-17T18:48:01.834Z,25.61
2022-08-17T18:50:41.331Z,25.56
2022-08-17T18:53:40.819Z,25.53
2022-08-17T18:56:23.033Z,25.47
2022-08-17T18:59:00.589Z,25.42
2022-08-17T19:01:41.919Z,25.35
2022-08-17T19:05:01.487Z,25.27
2022-08-17T19:07:34.591Z,25.23
2022-08-17T19:10:14.903Z,25.15
2022-08-17T19:12:51.672Z,25.06
2022-08-17T19:15:27.188Z,24.98
2022-08-17T19:18:02.404Z,24.83
2022-08-17T19:20:34.843Z,24.77
2022-08-17T19:23:19.849Z,24.65
2022-08-17T19:26:50.701Z,24.54
2022-08-17T19:29:13.533Z,24.47
2022-08-17T19:31:40.784Z,24.45
2022-08-17T19:34:07.327Z,24.42
2022-08-17T19:36:55.241Z,24.31
2022-08-17T19:39:37.952Z,24.24
2022-08-17T19:42:15.116Z,24.20
2022-08-17T19:44:47.689Z,24.19
2022-08-17T19:47:53.390Z,24.17
2022-08-17T19:50:29.294Z,24.24
2022-08-17T19:53:11.892Z,24.15
2022-08-17T19:56:08.343Z,23.93
2022-08-17T19:58:51.586Z,23.80
2022-08-17T20:01:34.849Z,23.67
2022-08-17T20:04:20.838Z,23.54
2022-08-17T20:06:49.560Z,23.41
2022-08-17T20:09:25.076Z,23.38
2022-08-17T20:12:07.721Z,23.34
2022-08-17T20:14:53.904Z,23.29
2022-08-17T20:17:30.445Z,23.25
2022-08-17T20:20:36.080Z,23.14
2022-08-17T20:23:12.391Z,23.03
2022-08-17T20:25:47.628Z,22.94
2022-08-17T20:28:27.879Z,22.83
2022-08-17T20:30:54.812Z,22.81
2022-08-17T20:33:36.701Z,22.69
2022-08-17T20:36:18.150Z,22.53
2022-08-17T20:38:46.248Z,22.52
2022-08-17T20:41:52.964Z,22.49
2022-08-17T20:44:33.129Z,22.41
2022-08-17T20:47:29.123Z,22.35
2022-08-17T20:50:05.128Z,22.35
2022-08-17T20:52:54.295Z,22.34
2022-08-17T20:55:36.340Z,22.28
2022-08-17T20:58:18.596Z,22.26
2022-08-17T21:00:57.456Z,22.26
2022-08-17T21:03:24.131Z,22.25
2022-08-17T21:06:14.413Z,22.20
2022-08-17T21:09:06.282Z,22.17
2022-08-17T21:12:02.867Z,22.16
2022-08-17T21:14:59.657Z,22.09
2022-08-17T21:17:39.453Z,22.05
2022-08-17T21:20:32.560Z,22.01
2022-08-17T21:23:02.702Z,21.97
2022-08-17T21:25:48.902Z,21.94
2022-08-17T21:28:59.917Z,21.91
2022-08-17T21:31:47.534Z,21.85
2022-08-17T21:34:23.664Z,21.86
2022-08-17T21:36:50.831Z,21.86
2022-08-17T21:39:23.282Z,21.88
2022-08-17T21:41:57.556Z,21.84
2022-08-17T21:44:35.104Z,21.80
2022-08-17T21:47:19.517Z,21.78
2022-08-17T21:49:46.382Z,21.76
2022-08-17T21:52:15.795Z,21.73
2022-08-17T21:54:53.235Z,21.71
2022-08-17T21:57:23.924Z,21.67
2022-08-17T21:59:53.448Z,21.68
2022-08-17T22:02:24.049Z,21.66
2022-08-17T22:05:07.141Z,21.62
2022-08-17T22:07:41.543Z,21.62
2022-08-17T22:10:46.291Z,21.63
2022-08-17T22:13:17.123Z,21.65
2022-08-17T22:15:49.740Z,21.64
2022-08-17T22:18:26.903Z,21.60
2022-08-17T22:20:57.939Z,21.59
2022-08-17T22:23:48.390Z,21.59
2022-08-17T22:26:19.801Z,21.49
2022-08-17T22:28:57.220Z,21.42
2022-08-17T22:31:29.833Z,21.36
2022-08-17T22:34:02.218Z,21.28
2022-08-17T22:36:30.836Z,21.25
2022-08-17T22:39:00.153Z,21.23
2022-08-17T22:41:40.438Z,21.23
2022-08-17T22:44:15.388Z,21.19
2022-08-17T22:46:59.990Z,21.15
2022-08-17T22:49:54.068Z,21.09
2022-08-17T22:52:58.862Z,21.07
2022-08-17T22:55:45.697Z,21.00
2022-08-17T22:58:35.202Z,20.98
2022-08-17T23:01:28.430Z,20.94
2022-08-17T23:04:04.186Z,20.91
2022-08-17T23:06:33.964Z,20.89
2022-08-17T23:09:03.639Z,20.83
2022-08-17T23:11:48.827Z,20.77
2022-08-17T23:14:20.133Z,20.71
2022-08-17T23:16:50.410Z,20.60
2022-08-17T23:19:21.522Z,20.49
2022-08-17T23:21:53.807Z,20.45
2022-08-17T23:24:24.146Z,20.46
2022-08-17T23:26:51.012Z,20.43
2022-08-17T23:29:20.174Z,20.42
2022-08-17T23:31:47.520Z,20.38
2022-08-17T23:34:14.991Z,20.30
2022-08-17T23:36:42.077Z,20.19
2022-08-17T23:39:08.694Z,20.11
2022-08-17T23:41:38.879Z,20.02
2022-08-17T23:46:52.208Z,19.88
2022-08-17T23:49:19.265Z,19.93
2022-08-17T23:51:49.932Z,20.00
2022-08-17T23:54:34.103Z,20.12
2022-08-17T23:57:02.118Z,20.16
2022-08-17T23:59:29.279Z,20.21
